createdAt,value
2019-03-27T00:00:18.507Z,2.90
2019-03-27T00:01:18.439Z,2.70
2019-03-27T00:02:18.394Z,2.90
2019-03-27T00:03:18.302Z,2.80
2019-03-27T00:04:18.233Z,2.90
2019-03-27T00:05:18.161Z,3.00
2019-03-27T00:06:18.078Z,2.80
2019-03-27T00:07:18.006Z,2.70
2019-03-27T00:08:17.930Z,2.60
2019-03-27T00:09:17.894Z,2.60
2019-03-27T00:10:17.801Z,2.90
2019-03-27T00:11:17.731Z,3.00
2019-03-27T00:12:17.658Z,3.00
2019-03-27T00:13:17.587Z,3.30
2019-03-27T00:14:17.495Z,3.00
2019-03-27T00:15:17.431Z,3.10
2019-03-27T00:16:17.367Z,2.80
2019-03-27T00:17:17.294Z,3.20
2019-03-27T00:18:17.211Z,2.60
2019-03-27T00:19:17.140Z,3.30
2019-03-27T00:20:17.081Z,2.90
2019-03-27T00:21:16.999Z,2.90
2019-03-27T00:22:16.934Z,3.10
2019-03-27T00:23:16.864Z,2.90
2019-03-27T00:24:16.777Z,3.00
2019-03-27T00:25:16.707Z,2.90
2019-03-27T00:26:16.649Z,2.70
2019-03-27T00:27:20.287Z,2.60
2019-03-27T00:28:16.569Z,3.40
2019-03-27T00:29:16.432Z,2.80
2019-03-27T00:30:16.347Z,3.20
2019-03-27T00:31:16.275Z,2.60
2019-03-27T00:32:16.218Z,3.00
2019-03-27T00:33:16.139Z,2.80
2019-03-27T00:34:16.056Z,3.20
2019-03-27T00:35:15.987Z,3.00
2019-03-27T00:36:15.917Z,2.70
2019-03-27T00:37:15.841Z,2.70
2019-03-27T00:38:15.802Z,3.00
2019-03-27T00:39:15.714Z,2.80
2019-03-27T00:40:15.637Z,2.90
2019-03-27T00:41:15.575Z,2.70
2019-03-27T00:42:15.488Z,2.80
2019-03-27T00:43:15.419Z,2.90
2019-03-27T00:44:15.341Z,3.00
2019-03-27T00:45:25.698Z,2.90
2019-03-27T00:46:15.209Z,3.00
2019-03-27T00:47:15.135Z,3.20
2019-03-27T00:48:15.051Z,2.80
2019-03-27T00:49:14.988Z,2.80
2019-03-27T00:50:14.924Z,2.60
2019-03-27T00:51:14.856Z,2.70
2019-03-27T00:52:14.787Z,2.90
2019-03-27T00:53:14.712Z,2.70
2019-03-27T00:54:14.625Z,2.80
2019-03-27T00:55:14.550Z,2.80
2019-03-27T00:56:14.501Z,2.70
2019-03-27T00:57:14.426Z,2.80
2019-03-27T00:58:14.341Z,3.10
2019-03-27T00:59:14.270Z,2.60
2019-03-27T01:00:14.194Z,2.80
2019-03-27T01:01:14.131Z,2.70
2019-03-27T01:02:14.063Z,2.40
2019-03-27T01:03:13.987Z,2.50
2019-03-27T01:04:13.906Z,2.80
2019-03-27T01:05:13.837Z,3.00
2019-03-27T01:06:13.775Z,2.80
2019-03-27T01:07:13.708Z,2.80
2019-03-27T01:08:13.629Z,3.00
2019-03-27T01:09:13.563Z,2.90
2019-03-27T01:10:13.474Z,2.70
2019-03-27T01:11:13.413Z,2.90
2019-03-27T01:12:13.334Z,2.80
2019-03-27T01:13:13.258Z,2.80
2019-03-27T01:14:13.204Z,2.60
2019-03-27T01:15:13.145Z,2.90
2019-03-27T01:16:13.057Z,3.00
2019-03-27T01:17:13.010Z,2.90
2019-03-27T01:18:12.924Z,2.90
2019-03-27T01:19:12.832Z,3.10
2019-03-27T01:20:12.770Z,3.00
2019-03-27T01:21:12.784Z,2.70
2019-03-27T01:22:12.615Z,2.80
2019-03-27T01:23:12.544Z,2.50
2019-03-27T01:24:12.467Z,2.60
2019-03-27T01:25:12.401Z,3.00
2019-03-27T01:26:12.340Z,2.90
2019-03-27T01:27:12.269Z,2.60
2019-03-27T01:28:12.182Z,3.00
2019-03-27T01:29:12.115Z,2.60
2019-03-27T01:30:12.050Z,2.60
2019-03-27T01:31:11.987Z,2.50
2019-03-27T01:32:11.909Z,3.00
2019-03-27T01:33:11.837Z,2.90
2019-03-27T01:34:11.753Z,2.70
2019-03-27T01:35:11.676Z,2.90
2019-03-27T01:36:11.622Z,3.00
2019-03-27T01:37:11.545Z,3.00
2019-03-27T01:38:11.462Z,2.70
2019-03-27T01:39:11.386Z,2.90
2019-03-27T01:40:11.317Z,2.90
2019-03-27T01:41:11.246Z,3.00
2019-03-27T01:42:11.187Z,2.80
2019-03-27T01:43:11.122Z,3.00
2019-03-27T01:44:11.041Z,3.30
2019-03-27T01:45:10.971Z,3.10
2019-03-27T01:46:10.879Z,3.20
2019-03-27T01:47:10.808Z,3.70
2019-03-27T01:48:10.740Z,4.00
2019-03-27T01:49:10.670Z,3.80
2019-03-27T01:50:10.601Z,4.20
2019-03-27T01:51:10.534Z,3.80
2019-03-27T01:52:10.450Z,3.80
2019-03-27T01:53:10.378Z,4.00
2019-03-27T01:54:10.316Z,4.10
2019-03-27T01:55:10.241Z,4.10
2019-03-27T01:56:10.174Z,4.10
2019-03-27T01:57:10.104Z,3.80
2019-03-27T01:58:10.016Z,3.90
2019-03-27T01:59:09.941Z,3.60
2019-03-27T02:00:09.866Z,3.50
2019-03-27T02:01:09.798Z,4.00
2019-03-27T02:02:09.733Z,3.90
2019-03-27T02:03:09.664Z,3.60
2019-03-27T02:04:09.591Z,3.50
2019-03-27T02:05:09.521Z,3.60
2019-03-27T02:06:09.436Z,3.70
2019-03-27T02:07:09.358Z,3.90
2019-03-27T02:08:09.299Z,3.60
2019-03-27T02:09:09.228Z,3.40
2019-03-27T02:10:09.148Z,3.80
2019-03-27T02:11:09.071Z,3.70
2019-03-27T02:12:09.002Z,3.50
2019-03-27T02:13:08.944Z,3.80
2019-03-27T02:14:08.869Z,3.70
2019-03-27T02:15:08.794Z,3.30
2019-03-27T02:16:08.726Z,3.20
2019-03-27T02:17:08.647Z,3.10
2019-03-27T02:18:08.562Z,3.00
2019-03-27T02:19:08.489Z,2.90
2019-03-27T02:20:08.417Z,3.30
2019-03-27T02:21:08.348Z,3.20
2019-03-27T02:22:08.281Z,2.80
2019-03-27T02:23:08.217Z,3.40
2019-03-27T02:24:08.137Z,3.00
2019-03-27T02:25:08.062Z,3.10
2019-03-27T02:26:07.996Z,2.70
2019-03-27T02:27:07.921Z,3.00
2019-03-27T02:28:07.846Z,3.10
2019-03-27T02:29:07.781Z,2.90
2019-03-27T02:30:07.692Z,2.90
2019-03-27T02:31:07.619Z,2.60
2019-03-27T02:32:07.575Z,2.70
2019-03-27T02:33:07.522Z,3.00
2019-03-27T02:34:07.405Z,2.90
2019-03-27T02:35:07.354Z,3.00
2019-03-27T02:36:07.261Z,2.50
2019-03-27T02:37:07.202Z,2.70
2019-03-27T02:38:07.131Z,2.60
2019-03-27T02:39:07.060Z,2.30
2019-03-27T02:40:06.984Z,2.60
2019-03-27T02:41:06.901Z,2.80
2019-03-27T02:42:06.843Z,2.40
2019-03-27T02:43:06.766Z,2.70
2019-03-27T02:44:06.697Z,2.70
2019-03-27T02:45:06.627Z,2.60
2019-03-27T02:46:23.366Z,2.30
2019-03-27T02:47:06.484Z,2.70
2019-03-27T02:48:06.392Z,2.60
2019-03-27T02:49:06.321Z,2.60
2019-03-27T02:50:06.263Z,2.60
2019-03-27T02:51:06.189Z,3.10
2019-03-27T02:52:06.112Z,2.80
2019-03-27T02:53:06.046Z,2.70
2019-03-27T02:54:05.960Z,2.50
2019-03-27T02:55:05.903Z,2.50
2019-03-27T02:56:05.826Z,2.60
2019-03-27T02:57:05.756Z,2.40
2019-03-27T02:58:05.677Z,2.70
2019-03-27T02:59:05.609Z,3.00
2019-03-27T03:00:05.526Z,2.70
2019-03-27T03:01:05.453Z,3.00
2019-03-27T03:02:05.388Z,2.60
2019-03-27T03:03:05.318Z,2.60
2019-03-27T03:04:05.247Z,2.80
2019-03-27T03:05:05.176Z,3.10
2019-03-27T03:06:05.089Z,2.90
2019-03-27T03:07:05.013Z,2.60
2019-03-27T03:08:04.947Z,2.70
2019-03-27T03:09:04.870Z,2.70
2019-03-27T03:10:04.855Z,2.60
2019-03-27T03:11:04.774Z,2.80
2019-03-27T03:12:04.691Z,2.50
2019-03-27T03:13:04.577Z,2.80
2019-03-27T03:14:04.525Z,2.80
2019-03-27T03:15:04.451Z,2.70
2019-03-27T03:16:04.380Z,3.10
2019-03-27T03:17:04.299Z,2.70
2019-03-27T03:18:04.225Z,2.70
2019-03-27T03:19:04.147Z,2.80
2019-03-27T03:20:04.069Z,3.00
2019-03-27T03:21:04.129Z,2.40
2019-03-27T03:22:03.933Z,2.80
2019-03-27T03:23:03.883Z,2.90
2019-03-27T03:24:03.787Z,2.50
2019-03-27T03:25:03.724Z,2.70
2019-03-27T03:26:03.632Z,2.80
2019-03-27T03:27:03.564Z,3.10
2019-03-27T03:28:03.496Z,3.00
2019-03-27T03:29:03.428Z,2.90
2019-03-27T03:30:03.341Z,3.00
2019-03-27T03:31:03.265Z,2.80
2019-03-27T03:32:03.350Z,2.80
2019-03-27T03:33:03.125Z,2.60
2019-03-27T03:34:03.074Z,3.10
2019-03-27T03:35:03.023Z,2.90
2019-03-27T03:36:02.905Z,3.00
2019-03-27T03:37:02.863Z,3.00
2019-03-27T03:38:02.772Z,2.90
2019-03-27T03:39:02.702Z,3.10
2019-03-27T03:40:02.628Z,3.10
2019-03-27T03:41:02.554Z,2.90
2019-03-27T03:42:02.467Z,2.80
2019-03-27T03:43:02.392Z,2.90
2019-03-27T03:44:02.330Z,3.10
2019-03-27T03:45:02.277Z,2.90
2019-03-27T03:46:02.170Z,2.80
2019-03-27T03:47:02.109Z,2.90
2019-03-27T03:48:02.073Z,3.30
2019-03-27T03:49:01.972Z,3.00
2019-03-27T03:50:01.895Z,3.20
2019-03-27T03:51:01.826Z,3.00
2019-03-27T03:52:01.752Z,3.30
2019-03-27T03:53:01.678Z,3.20
2019-03-27T03:54:01.592Z,3.10
2019-03-27T03:55:01.522Z,2.90
2019-03-27T03:56:01.445Z,2.90
2019-03-27T03:57:01.374Z,2.80
2019-03-27T03:58:01.313Z,3.00
2019-03-27T03:59:01.254Z,2.60
2019-03-27T04:00:01.153Z,3.10
2019-03-27T04:01:01.076Z,3.00
2019-03-27T04:02:01.018Z,2.90
2019-03-27T04:03:00.943Z,2.90
2019-03-27T04:04:00.874Z,3.00
2019-03-27T04:05:00.801Z,2.90
2019-03-27T04:06:00.716Z,3.10
2019-03-27T04:07:00.642Z,3.00
2019-03-27T04:08:00.571Z,3.20
2019-03-27T04:09:00.502Z,3.00
2019-03-27T04:10:00.635Z,2.80
2019-03-27T04:11:00.366Z,2.70
2019-03-27T04:12:00.297Z,2.80
2019-03-27T04:13:00.218Z,3.00
2019-03-27T04:14:00.134Z,2.80
2019-03-27T04:15:00.135Z,2.90
2019-03-27T04:15:59.994Z,3.00
2019-03-27T04:17:16.087Z,3.00
2019-03-27T04:17:59.845Z,3.10
2019-03-27T04:18:59.763Z,3.10
2019-03-27T04:19:59.695Z,3.00
2019-03-27T04:20:59.621Z,2.90
2019-03-27T04:21:59.572Z,3.10
2019-03-27T04:22:59.484Z,3.20
2019-03-27T04:23:59.415Z,2.90
2019-03-27T04:24:59.338Z,2.70
2019-03-27T04:26:09.613Z,2.80
2019-03-27T04:26:59.186Z,2.90
2019-03-27T04:27:59.112Z,3.00
2019-03-27T04:28:59.036Z,2.80
2019-03-27T04:29:58.977Z,2.80
2019-03-27T04:30:58.908Z,2.40
2019-03-27T04:31:58.820Z,2.70
2019-03-27T04:32:58.740Z,3.40
2019-03-27T04:33:58.678Z,3.00
2019-03-27T04:34:58.621Z,3.00
2019-03-27T04:35:58.540Z,2.70
2019-03-27T04:36:58.468Z,2.80
2019-03-27T04:37:58.379Z,3.00
2019-03-27T04:38:58.307Z,2.90
2019-03-27T04:39:58.246Z,2.60
2019-03-27T04:40:58.170Z,2.90
2019-03-27T04:41:58.080Z,2.90
2019-03-27T04:42:58.005Z,2.40
2019-03-27T04:43:57.939Z,2.80
2019-03-27T04:44:57.863Z,2.90
2019-03-27T04:45:57.799Z,3.10
2019-03-27T04:46:57.731Z,3.00
2019-03-27T04:47:57.652Z,3.10
2019-03-27T04:48:57.576Z,2.80
2019-03-27T04:49:57.506Z,2.70
2019-03-27T04:50:57.437Z,3.20
2019-03-27T04:51:57.366Z,3.10
2019-03-27T04:52:57.289Z,2.60
2019-03-27T04:53:57.202Z,3.20
2019-03-27T04:54:57.130Z,3.30
2019-03-27T04:55:57.056Z,3.40
2019-03-27T04:56:56.993Z,3.50
2019-03-27T04:57:56.926Z,2.90
2019-03-27T04:58:56.851Z,3.20
2019-03-27T04:59:56.781Z,3.10
2019-03-27T05:00:56.703Z,3.10
2019-03-27T05:01:56.618Z,2.90
2019-03-27T05:02:56.543Z,3.30
2019-03-27T05:03:56.484Z,3.60
2019-03-27T05:04:56.407Z,3.40
2019-03-27T05:05:56.324Z,3.30
2019-03-27T05:06:56.250Z,3.10
2019-03-27T05:07:56.173Z,3.20
2019-03-27T05:08:56.104Z,3.10
2019-03-27T05:09:56.043Z,3.20
2019-03-27T05:10:55.972Z,3.30
2019-03-27T05:11:55.881Z,3.50
2019-03-27T05:12:55.809Z,3.60
2019-03-27T05:13:55.744Z,3.20
2019-03-27T05:14:55.674Z,3.10
2019-03-27T05:15:55.599Z,3.50
2019-03-27T05:16:55.588Z,3.10
2019-03-27T05:17:55.443Z,3.10
2019-03-27T05:18:55.368Z,3.20
2019-03-27T05:19:55.307Z,3.10
2019-03-27T05:20:55.233Z,3.60
2019-03-27T05:21:55.149Z,3.60
2019-03-27T05:22:55.074Z,3.70
2019-03-27T05:23:55.002Z,3.50
2019-03-27T05:24:54.933Z,3.70
2019-03-27T05:25:54.875Z,3.50
2019-03-27T05:26:54.792Z,3.60
2019-03-27T05:27:54.742Z,3.70
2019-03-27T05:28:54.647Z,3.40
2019-03-27T05:29:54.561Z,3.90
2019-03-27T05:30:54.484Z,3.90
2019-03-27T05:31:54.412Z,4.10
2019-03-27T05:32:54.338Z,3.90
2019-03-27T05:33:54.277Z,3.20
2019-03-27T05:34:54.204Z,3.90
2019-03-27T05:35:54.116Z,3.40
2019-03-27T05:36:54.042Z,3.90
2019-03-27T05:37:53.983Z,3.80
2019-03-27T05:38:53.912Z,3.30
2019-03-27T05:39:53.842Z,3.60
2019-03-27T05:40:53.762Z,3.50
2019-03-27T05:41:53.677Z,3.60
2019-03-27T05:43:00.548Z,3.80
2019-03-27T05:43:53.547Z,3.90
2019-03-27T05:44:53.467Z,3.60
2019-03-27T05:45:53.490Z,3.60
2019-03-27T05:46:53.306Z,3.80
2019-03-27T05:47:59.622Z,3.70
2019-03-27T05:48:53.163Z,3.50
2019-03-27T05:49:53.101Z,3.60
2019-03-27T05:50:53.027Z,4.00
2019-03-27T05:51:52.938Z,3.70
2019-03-27T05:52:52.872Z,3.90
2019-03-27T05:53:52.805Z,3.50
2019-03-27T05:54:52.727Z,3.90
2019-03-27T05:55:52.654Z,3.50
2019-03-27T05:56:52.589Z,3.60
2019-03-27T05:57:52.547Z,3.90
2019-03-27T05:58:52.431Z,3.90
2019-03-27T05:59:52.351Z,3.30
2019-03-27T06:00:52.278Z,3.50
2019-03-27T06:01:52.216Z,4.20
2019-03-27T06:02:52.143Z,3.90
2019-03-27T06:03:52.073Z,4.10
2019-03-27T06:04:51.991Z,3.70
2019-03-27T06:05:51.910Z,3.80
2019-03-27T06:06:51.839Z,3.80
2019-03-27T06:07:51.778Z,3.70
2019-03-27T06:08:51.695Z,4.10
2019-03-27T06:09:51.616Z,4.10
2019-03-27T06:10:51.538Z,3.90
2019-03-27T06:11:51.465Z,3.80
2019-03-27T06:12:51.394Z,3.90
2019-03-27T06:13:51.338Z,4.30
2019-03-27T06:14:51.252Z,4.00
2019-03-27T06:15:51.184Z,3.70
2019-03-27T06:16:51.112Z,3.90
2019-03-27T06:17:51.023Z,4.00
2019-03-27T06:18:50.947Z,3.80
2019-03-27T06:19:50.868Z,4.00
2019-03-27T06:20:50.797Z,3.80
2019-03-27T06:21:50.734Z,3.90
2019-03-27T06:22:50.663Z,3.80
2019-03-27T06:23:50.579Z,4.50
2019-03-27T06:24:50.502Z,3.70
2019-03-27T06:25:50.435Z,4.30
2019-03-27T06:26:50.364Z,4.20
2019-03-27T06:27:50.297Z,4.20
2019-03-27T06:28:50.215Z,4.00
2019-03-27T06:29:50.127Z,4.20
2019-03-27T06:30:50.055Z,4.00
2019-03-27T06:31:49.990Z,4.40
2019-03-27T06:32:49.908Z,4.20
2019-03-27T06:33:49.845Z,4.30
2019-03-27T06:34:49.777Z,4.00
2019-03-27T06:35:49.702Z,4.00
2019-03-27T06:36:49.630Z,4.00
2019-03-27T06:37:49.544Z,3.60
2019-03-27T06:38:49.469Z,4.00
2019-03-27T06:39:49.407Z,3.80
2019-03-27T06:40:49.337Z,4.10
2019-03-27T06:41:49.243Z,4.00
2019-03-27T06:42:49.175Z,4.20
2019-03-27T06:43:49.102Z,3.70
2019-03-27T06:44:49.029Z,4.20
2019-03-27T06:45:48.960Z,3.90
2019-03-27T06:46:48.889Z,4.30
2019-03-27T06:47:48.810Z,4.20
2019-03-27T06:48:48.735Z,5.20
2019-03-27T06:49:48.670Z,4.50
2019-03-27T06:50:48.600Z,4.30
2019-03-27T06:51:48.526Z,4.20
2019-03-27T06:52:48.452Z,4.20
2019-03-27T06:53:48.365Z,4.20
2019-03-27T06:54:48.293Z,4.40
2019-03-27T06:55:48.235Z,4.30
2019-03-27T06:56:48.162Z,4.20
2019-03-27T06:57:48.071Z,4.30
2019-03-27T06:58:54.528Z,4.60
2019-03-27T06:59:47.925Z,4.90
2019-03-27T07:00:47.856Z,5.50
2019-03-27T07:01:47.795Z,6.00
2019-03-27T07:02:47.723Z,4.90
2019-03-27T07:03:47.652Z,4.50
2019-03-27T07:04:47.619Z,4.40
2019-03-27T07:05:47.490Z,4.00
2019-03-27T07:06:47.435Z,4.20
2019-03-27T07:07:47.349Z,4.30
2019-03-27T07:08:47.277Z,4.20
2019-03-27T07:09:47.216Z,4.20
2019-03-27T07:10:47.143Z,4.70
2019-03-27T07:11:47.053Z,4.00
2019-03-27T07:12:46.987Z,4.20
2019-03-27T07:13:46.937Z,3.90
2019-03-27T07:14:46.853Z,4.40
2019-03-27T07:15:46.780Z,3.90
2019-03-27T07:16:46.709Z,4.10
2019-03-27T07:17:46.629Z,4.20
2019-03-27T07:18:46.553Z,4.30
2019-03-27T07:19:46.480Z,4.70
2019-03-27T07:20:46.409Z,4.50
2019-03-27T07:21:46.350Z,4.30
2019-03-27T07:22:46.274Z,4.50
2019-03-27T07:23:46.204Z,4.80
2019-03-27T07:24:46.145Z,4.80
2019-03-27T07:25:46.050Z,4.80
2019-03-27T07:26:45.985Z,4.80
2019-03-27T07:27:45.917Z,5.10
2019-03-27T07:28:45.849Z,5.90
2019-03-27T07:29:45.763Z,5.80
2019-03-27T07:30:45.691Z,5.50
2019-03-27T07:31:45.659Z,5.80
2019-03-27T07:32:45.550Z,5.90
2019-03-27T07:33:45.487Z,5.80
2019-03-27T07:34:45.420Z,6.30
2019-03-27T07:35:45.351Z,6.00
2019-03-27T07:36:45.271Z,5.80
2019-03-27T07:37:45.189Z,5.90
2019-03-27T07:38:45.118Z,5.90
2019-03-27T07:39:45.047Z,5.50
2019-03-27T07:40:44.977Z,5.60
2019-03-27T07:41:44.919Z,6.10
2019-03-27T07:42:44.854Z,6.00
2019-03-27T07:43:44.765Z,6.00
2019-03-27T07:44:44.707Z,6.20
2019-03-27T07:45:44.630Z,5.50
2019-03-27T07:46:44.563Z,6.50
2019-03-27T07:47:44.494Z,6.20
2019-03-27T07:48:53.854Z,6.30
2019-03-27T07:49:44.341Z,6.40
2019-03-27T07:50:44.269Z,6.40
2019-03-27T07:51:44.204Z,6.00
2019-03-27T07:52:44.137Z,6.40
2019-03-27T07:53:44.053Z,6.00
2019-03-27T07:54:43.983Z,5.70
2019-03-27T07:55:43.913Z,6.10
2019-03-27T07:56:43.845Z,5.80
2019-03-27T07:57:43.786Z,5.20
2019-03-27T07:58:43.714Z,5.70
2019-03-27T07:59:43.634Z,5.40
2019-03-27T08:00:43.562Z,5.70
2019-03-27T08:01:43.499Z,5.30
2019-03-27T08:02:43.440Z,5.00
2019-03-27T08:03:43.356Z,5.60
2019-03-27T08:04:43.299Z,5.10
2019-03-27T08:05:43.218Z,5.30
2019-03-27T08:06:43.135Z,5.20
2019-03-27T08:07:43.067Z,4.80
2019-03-27T08:08:43.007Z,5.10
2019-03-27T08:09:42.946Z,5.50
2019-03-27T08:10:42.874Z,5.40
2019-03-27T08:11:42.797Z,5.70
2019-03-27T08:12:42.732Z,5.90
2019-03-27T08:13:42.653Z,5.90
2019-03-27T08:14:42.577Z,6.30
2019-03-27T08:15:42.523Z,6.50
2019-03-27T08:16:42.449Z,6.90
2019-03-27T08:17:42.370Z,7.20
2019-03-27T08:18:42.303Z,7.40
2019-03-27T08:19:42.233Z,7.50
2019-03-27T08:20:42.161Z,7.60
2019-03-27T08:21:42.100Z,7.90
2019-03-27T08:22:42.032Z,8.00
2019-03-27T08:23:41.965Z,8.20
2019-03-27T08:24:41.896Z,7.40
2019-03-27T08:25:41.808Z,6.80
2019-03-27T08:26:41.745Z,6.30
2019-03-27T08:27:41.671Z,7.00
2019-03-27T08:28:41.601Z,6.40
2019-03-27T08:29:41.545Z,7.40
2019-03-27T08:30:41.476Z,7.10
2019-03-27T08:31:41.397Z,6.90
2019-03-27T08:32:41.325Z,7.50
2019-03-27T08:33:41.268Z,7.00
2019-03-27T08:34:41.200Z,6.70
2019-03-27T08:35:41.159Z,6.30
2019-03-27T08:36:41.055Z,6.50
2019-03-27T08:37:40.978Z,5.60
2019-03-27T08:38:40.909Z,5.50
2019-03-27T08:39:40.842Z,4.90
2019-03-27T08:40:40.771Z,5.10
2019-03-27T08:41:40.717Z,4.20
2019-03-27T08:42:40.645Z,4.90
2019-03-27T08:43:40.571Z,5.10
2019-03-27T08:44:40.510Z,4.80
2019-03-27T08:45:40.421Z,4.70
2019-03-27T08:46:40.355Z,4.50
2019-03-27T08:47:40.293Z,4.40
2019-03-27T08:48:40.229Z,4.60
2019-03-27T08:49:40.149Z,4.10
2019-03-27T08:50:40.078Z,4.40
2019-03-27T08:51:40.009Z,4.20
2019-03-27T08:52:39.941Z,3.90
2019-03-27T08:53:39.883Z,4.00
2019-03-27T08:54:39.816Z,4.10
2019-03-27T08:55:39.729Z,3.80
2019-03-27T08:56:39.663Z,3.90
2019-03-27T08:57:39.605Z,4.10
2019-03-27T08:58:39.563Z,4.30
2019-03-27T08:59:39.467Z,3.90
2019-03-27T09:00:39.400Z,4.30
2019-03-27T09:01:39.317Z,4.90
2019-03-27T09:02:39.249Z,4.40
2019-03-27T09:03:39.196Z,4.90
2019-03-27T09:04:39.123Z,4.00
2019-03-27T09:05:39.041Z,4.50
2019-03-27T09:06:38.982Z,4.70
2019-03-27T09:07:38.903Z,4.40
2019-03-27T09:08:38.832Z,4.20
2019-03-27T09:09:38.779Z,4.80
2019-03-27T09:10:38.709Z,4.20
2019-03-27T09:11:38.644Z,4.50
2019-03-27T09:12:38.576Z,4.90
2019-03-27T09:13:38.495Z,4.70
2019-03-27T09:14:38.441Z,4.40
2019-03-27T09:15:38.354Z,4.60
2019-03-27T09:16:38.291Z,4.30
2019-03-27T09:17:38.230Z,4.50
2019-03-27T09:18:38.160Z,4.60
2019-03-27T09:19:38.079Z,4.10
2019-03-27T09:20:38.013Z,4.30
2019-03-27T09:21:37.956Z,3.90
2019-03-27T09:22:37.885Z,4.00
2019-03-27T09:23:37.821Z,3.80
2019-03-27T09:24:37.748Z,4.10
2019-03-27T09:25:37.671Z,4.10
2019-03-27T09:26:37.603Z,4.10
2019-03-27T09:27:37.555Z,4.50
2019-03-27T09:28:37.477Z,4.20
2019-03-27T09:29:37.401Z,4.10
2019-03-27T09:30:37.326Z,4.30
2019-03-27T09:31:44.584Z,4.10
2019-03-27T09:32:37.201Z,4.10
2019-03-27T09:33:37.148Z,4.20
2019-03-27T09:34:37.056Z,3.80
2019-03-27T09:35:36.985Z,4.00
2019-03-27T09:36:36.933Z,4.00
2019-03-27T09:37:36.865Z,4.00
2019-03-27T09:38:36.798Z,4.10
2019-03-27T09:39:36.732Z,3.70
2019-03-27T09:40:36.647Z,3.40
2019-03-27T09:41:36.584Z,3.60
2019-03-27T09:42:36.507Z,3.50
2019-03-27T09:43:36.445Z,3.40
2019-03-27T09:44:36.387Z,3.30
2019-03-27T09:45:36.316Z,3.70
2019-03-27T09:46:36.255Z,4.20
2019-03-27T09:47:36.180Z,4.30
2019-03-27T09:48:36.103Z,4.00
2019-03-27T09:49:49.056Z,3.70
2019-03-27T09:50:36.001Z,3.50
2019-03-27T09:51:35.911Z,3.40
2019-03-27T09:52:35.828Z,3.40
2019-03-27T09:53:35.762Z,3.30
2019-03-27T09:54:35.691Z,3.50
2019-03-27T09:55:35.629Z,2.90
2019-03-27T09:56:35.568Z,3.40
2019-03-27T09:57:35.499Z,3.30
2019-03-27T09:58:35.417Z,3.30
2019-03-27T09:59:35.352Z,3.30
2019-03-27T10:00:35.293Z,3.20
2019-03-27T10:01:35.219Z,3.20
2019-03-27T10:02:35.166Z,3.30
2019-03-27T10:03:35.097Z,3.20
2019-03-27T10:04:35.013Z,3.10
2019-03-27T10:05:34.947Z,3.30
2019-03-27T10:06:34.892Z,3.20
2019-03-27T10:07:34.820Z,3.50
2019-03-27T10:08:34.741Z,3.20
2019-03-27T10:09:34.672Z,3.50
2019-03-27T10:10:34.602Z,3.70
2019-03-27T10:11:34.540Z,3.80
2019-03-27T10:12:34.479Z,3.60
2019-03-27T10:13:34.411Z,4.00
2019-03-27T10:14:34.344Z,3.70
2019-03-27T10:15:34.281Z,3.80
2019-03-27T10:16:34.201Z,3.50
2019-03-27T10:17:34.127Z,3.70
2019-03-27T10:18:34.059Z,3.10
2019-03-27T10:19:33.993Z,3.40
2019-03-27T10:20:33.938Z,3.10
2019-03-27T10:21:33.869Z,3.70
2019-03-27T10:22:33.792Z,3.10
2019-03-27T10:23:33.720Z,3.00
2019-03-27T10:24:33.740Z,3.20
2019-03-27T10:25:33.593Z,3.20
2019-03-27T10:26:33.530Z,3.00
2019-03-27T10:27:33.458Z,3.40
2019-03-27T10:28:33.378Z,3.30
2019-03-27T10:29:33.310Z,3.50
2019-03-27T10:30:33.244Z,3.00
2019-03-27T10:31:33.177Z,3.20
2019-03-27T10:32:33.123Z,3.20
2019-03-27T10:33:33.064Z,3.20
2019-03-27T10:34:32.985Z,3.50
2019-03-27T10:35:32.916Z,3.50
2019-03-27T10:36:32.851Z,3.30
2019-03-27T10:37:32.763Z,3.20
2019-03-27T10:38:32.710Z,3.10
2019-03-27T10:39:32.645Z,3.20
2019-03-27T10:40:32.578Z,3.00
2019-03-27T10:41:32.494Z,3.10
2019-03-27T10:42:32.431Z,3.30
2019-03-27T10:43:32.372Z,3.30
2019-03-27T10:44:32.309Z,2.90
2019-03-27T10:45:32.237Z,3.00
2019-03-27T10:46:32.167Z,2.90
2019-03-27T10:47:32.108Z,3.00
2019-03-27T10:48:32.035Z,3.00
2019-03-27T10:49:34.438Z,2.70
2019-03-27T10:50:31.885Z,2.90
2019-03-27T10:51:31.820Z,3.10
2019-03-27T10:52:31.765Z,3.10
2019-03-27T10:53:31.706Z,3.10
2019-03-27T10:54:31.614Z,3.10
2019-03-27T10:55:34.344Z,3.00
2019-03-27T10:56:31.495Z,3.00
2019-03-27T10:57:31.425Z,3.00
2019-03-27T10:58:31.388Z,3.00
2019-03-27T10:59:31.292Z,3.30
2019-03-27T11:00:31.209Z,3.10
2019-03-27T11:01:31.144Z,3.30
2019-03-27T11:02:31.090Z,3.10
2019-03-27T11:03:31.021Z,3.20
2019-03-27T11:04:30.942Z,3.10
2019-03-27T11:05:30.870Z,3.10
2019-03-27T11:06:30.846Z,3.10
2019-03-27T11:07:30.738Z,3.20
2019-03-27T11:08:30.681Z,3.30
2019-03-27T11:09:30.616Z,2.90
2019-03-27T11:10:30.533Z,3.30
2019-03-27T11:11:30.566Z,3.30
2019-03-27T11:12:30.414Z,3.30
2019-03-27T11:13:30.348Z,4.70
2019-03-27T11:14:37.634Z,4.80
2019-03-27T11:15:30.207Z,3.50
2019-03-27T11:16:30.123Z,3.20
2019-03-27T11:17:30.063Z,3.20
2019-03-27T11:18:29.988Z,3.60
2019-03-27T11:19:29.940Z,3.20
2019-03-27T11:20:31.213Z,3.10
2019-03-27T11:21:29.800Z,3.30
2019-03-27T11:22:29.755Z,3.20
2019-03-27T11:23:29.662Z,3.00
2019-03-27T11:24:29.581Z,3.30
2019-03-27T11:25:32.854Z,2.80
2019-03-27T11:26:29.478Z,2.80
2019-03-27T11:27:29.408Z,3.40
2019-03-27T11:28:29.316Z,3.40
2019-03-27T11:29:29.246Z,3.60
2019-03-27T11:30:29.178Z,3.40
2019-03-27T11:31:29.106Z,3.60
2019-03-27T11:32:29.055Z,4.30
2019-03-27T11:33:29.145Z,4.10
2019-03-27T11:34:28.920Z,3.60
2019-03-27T11:35:28.854Z,4.40
2019-03-27T11:36:28.771Z,4.40
2019-03-27T11:37:28.706Z,4.20
2019-03-27T11:38:28.635Z,3.90
2019-03-27T11:39:28.570Z,3.90
2019-03-27T11:40:28.514Z,4.20
2019-03-27T11:41:28.447Z,4.00
2019-03-27T11:42:28.368Z,3.60
2019-03-27T11:43:28.295Z,3.80
2019-03-27T11:44:28.246Z,3.30
2019-03-27T11:45:28.177Z,3.60
2019-03-27T11:46:28.110Z,3.40
2019-03-27T11:47:28.039Z,3.20
2019-03-27T11:48:27.958Z,4.30
2019-03-27T11:49:27.888Z,7.60
2019-03-27T11:50:27.818Z,4.90
2019-03-27T11:51:27.754Z,4.00
2019-03-27T11:52:29.644Z,3.80
2019-03-27T11:53:27.641Z,3.90
2019-03-27T11:54:27.569Z,3.70
2019-03-27T11:55:27.495Z,3.60
2019-03-27T11:56:27.418Z,3.30
2019-03-27T11:57:27.355Z,2.90
2019-03-27T11:58:27.301Z,2.90
2019-03-27T11:59:27.224Z,3.00
2019-03-27T12:00:27.151Z,2.60
2019-03-27T12:01:39.303Z,2.60
2019-03-27T12:02:27.014Z,3.00
2019-03-27T12:03:26.944Z,3.30
2019-03-27T12:04:26.889Z,3.00
2019-03-27T12:05:26.818Z,3.20
2019-03-27T12:06:26.738Z,3.10
2019-03-27T12:07:26.672Z,3.00
2019-03-27T12:08:26.616Z,3.00
2019-03-27T12:09:26.548Z,3.00
2019-03-27T12:10:26.482Z,2.90
2019-03-27T12:11:26.414Z,2.90
2019-03-27T12:12:26.332Z,2.80
2019-03-27T12:13:26.261Z,2.70
2019-03-27T12:14:26.211Z,3.40
2019-03-27T12:15:26.137Z,3.50
2019-03-27T12:16:26.068Z,3.00
2019-03-27T12:17:25.996Z,2.80
2019-03-27T12:18:25.922Z,2.90
2019-03-27T12:19:25.866Z,2.60
2019-03-27T12:20:25.804Z,2.40
2019-03-27T12:21:25.731Z,2.70
2019-03-27T12:22:25.668Z,3.00
2019-03-27T12:23:25.605Z,2.50
2019-03-27T12:24:25.518Z,2.30
2019-03-27T12:25:25.527Z,2.60
2019-03-27T12:26:25.382Z,2.70
2019-03-27T12:27:25.321Z,2.50
2019-03-27T12:28:25.262Z,2.30
2019-03-27T12:29:25.191Z,2.40
2019-03-27T12:30:25.114Z,2.60
2019-03-27T12:31:25.045Z,3.00
2019-03-27T12:32:25.220Z,2.80
2019-03-27T12:33:24.919Z,3.00
2019-03-27T12:34:24.856Z,2.80
2019-03-27T12:35:24.782Z,2.60
2019-03-27T12:36:24.708Z,3.00
2019-03-27T12:37:24.636Z,2.60
2019-03-27T12:38:24.570Z,2.50
2019-03-27T12:39:24.500Z,2.50
2019-03-27T12:40:24.447Z,2.50
2019-03-27T12:41:24.376Z,2.40
2019-03-27T12:42:24.315Z,2.60
2019-03-27T12:43:24.238Z,2.30
2019-03-27T12:44:24.160Z,2.50
2019-03-27T12:45:24.139Z,2.70
2019-03-27T12:46:24.038Z,2.80
2019-03-27T12:47:23.972Z,2.70
2019-03-27T12:48:23.893Z,2.70
2019-03-27T12:49:24.084Z,2.70
2019-03-27T12:50:23.757Z,2.50
2019-03-27T12:51:23.688Z,2.60
2019-03-27T12:52:23.629Z,2.60
2019-03-27T12:53:23.563Z,2.60
2019-03-27T12:54:23.498Z,2.50
2019-03-27T12:55:23.429Z,2.60
2019-03-27T12:56:23.351Z,2.40
2019-03-27T12:57:23.284Z,2.60
2019-03-27T12:58:23.225Z,2.60
2019-03-27T12:59:23.146Z,2.70
2019-03-27T13:00:23.096Z,2.90
2019-03-27T13:01:23.022Z,2.70
2019-03-27T13:02:22.942Z,3.10
2019-03-27T13:03:22.882Z,2.90
2019-03-27T13:04:22.833Z,3.20
2019-03-27T13:05:22.751Z,2.90
2019-03-27T13:06:22.709Z,3.20
2019-03-27T13:07:22.615Z,3.30
2019-03-27T13:08:22.534Z,3.20
2019-03-27T13:09:22.470Z,3.10
2019-03-27T13:10:22.415Z,3.00
2019-03-27T13:11:22.347Z,3.00
2019-03-27T13:12:22.267Z,3.20
2019-03-27T13:13:22.210Z,2.80
2019-03-27T13:14:22.129Z,3.00
2019-03-27T13:15:22.062Z,2.90
2019-03-27T13:16:22.016Z,2.70
2019-03-27T13:17:21.939Z,3.50